sensor_id;sensor_type;location;lat;lon;timestamp;P1;durP1;ratioP1;P2;durP2;ratioP2
1350;SDS011;669;50.206;9.998;2023-05-28T00:01:55;3.00;;;2.70;;
1350;SDS011;669;50.206;9.998;2023-05-28T00:04:23;8.93;;;4.07;;
1350;SDS011;669;50.206;9.998;2023-05-28T00:06:51;4.17;;;3.57;;
1350;SDS011;669;50.206;9.998;2023-05-28T00:09:23;2.30;;;2.10;;
1350;SDS011;669;50.206;9.998;2023-05-28T00:11:51;5.40;;;2.80;;
1350;SDS011;669;50.206;9.998;2023-05-28T00:14:19;6.33;;;2.80;;
1350;SDS011;669;50.206;9.998;2023-05-28T00:16:46;4.10;;;2.87;;
1350;SDS011;669;50.206;9.998;2023-05-28T00:19:17;2.97;;;2.60;;
1350;SDS011;669;50.206;9.998;2023-05-28T00:21:45;3.90;;;2.80;;
1350;SDS011;669;50.206;9.998;2023-05-28T00:24:13;4.43;;;3.20;;
1350;SDS011;669;50.206;9.998;2023-05-28T00:26:43;3.97;;;3.10;;
1350;SDS011;669;50.206;9.998;2023-05-28T00:29:11;3.60;;;2.87;;
1350;SDS011;669;50.206;9.998;2023-05-28T00:31:39;3.50;;;2.67;;
1350;SDS011;669;50.206;9.998;2023-05-28T00:34:07;3.20;;;2.90;;
1350;SDS011;669;50.206;9.998;2023-05-28T00:36:35;3.27;;;2.97;;
1350;SDS011;669;50.206;9.998;2023-05-28T00:39:03;3.13;;;2.83;;
1350;SDS011;669;50.206;9.998;2023-05-28T00:41:32;3.67;;;2.37;;
1350;SDS011;669;50.206;9.998;2023-05-28T00:44:03;4.83;;;2.90;;
1350;SDS011;669;50.206;9.998;2023-05-28T00:46:32;3.43;;;3.10;;
1350;SDS011;669;50.206;9.998;2023-05-28T00:49:00;5.17;;;2.43;;
1350;SDS011;669;50.206;9.998;2023-05-28T00:51:28;3.50;;;3.00;;
1350;SDS011;669;50.206;9.998;2023-05-28T00:53:57;3.83;;;2.47;;
1350;SDS011;669;50.206;9.998;2023-05-28T00:56:26;3.33;;;3.03;;
1350;SDS011;669;50.206;9.998;2023-05-28T00:58:55;4.53;;;3.40;;
1350;SDS011;669;50.206;9.998;2023-05-28T01:01:24;3.17;;;2.87;;
1350;SDS011;669;50.206;9.998;2023-05-28T01:03:54;4.10;;;3.20;;
1350;SDS011;669;50.206;9.998;2023-05-28T01:06:22;4.80;;;3.33;;
1350;SDS011;669;50.206;9.998;2023-05-28T01:08:50;6.60;;;2.90;;
1350;SDS011;669;50.206;9.998;2023-05-28T01:11:18;4.10;;;2.43;;
1350;SDS011;669;50.206;9.998;2023-05-28T01:13:47;3.60;;;2.33;;
1350;SDS011;669;50.206;9.998;2023-05-28T01:16:15;4.77;;;3.10;;
1350;SDS011;669;50.206;9.998;2023-05-28T01:18:45;4.90;;;3.50;;
1350;SDS011;669;50.206;9.998;2023-05-28T01:21:13;5.03;;;3.00;;
1350;SDS011;669;50.206;9.998;2023-05-28T01:23:43;5.07;;;3.50;;
1350;SDS011;669;50.206;9.998;2023-05-28T01:26:13;3.10;;;2.70;;
1350;SDS011;669;50.206;9.998;2023-05-28T01:28:43;3.80;;;2.63;;
1350;SDS011;669;50.206;9.998;2023-05-28T01:31:11;5.00;;;2.70;;
1350;SDS011;669;50.206;9.998;2023-05-28T01:33:40;3.20;;;2.90;;
1350;SDS011;669;50.206;9.998;2023-05-28T01:36:10;4.90;;;2.83;;
1350;SDS011;669;50.206;9.998;2023-05-28T01:38:41;3.53;;;2.60;;
1350;SDS011;669;50.206;9.998;2023-05-28T01:41:13;2.30;;;1.80;;
1350;SDS011;669;50.206;9.998;2023-05-28T01:43:42;4.07;;;3.17;;
1350;SDS011;669;50.206;9.998;2023-05-28T01:46:11;5.80;;;3.73;;
1350;SDS011;669;50.206;9.998;2023-05-28T01:48:40;3.40;;;2.67;;
1350;SDS011;669;50.206;9.998;2023-05-28T01:51:08;7.60;;;2.23;;
1350;SDS011;669;50.206;9.998;2023-05-28T01:53:36;2.57;;;2.30;;
1350;SDS011;669;50.206;9.998;2023-05-28T01:56:06;4.10;;;2.83;;
1350;SDS011;669;50.206;9.998;2023-05-28T01:58:34;4.47;;;3.73;;
1350;SDS011;669;50.206;9.998;2023-05-28T02:01:04;4.00;;;3.60;;
1350;SDS011;669;50.206;9.998;2023-05-28T02:03:39;5.70;;;3.30;;
1350;SDS011;669;50.206;9.998;2023-05-28T02:06:07;3.50;;;3.03;;
1350;SDS011;669;50.206;9.998;2023-05-28T02:08:35;3.23;;;2.93;;
1350;SDS011;669;50.206;9.998;2023-05-28T02:11:03;2.93;;;2.63;;
1350;SDS011;669;50.206;9.998;2023-05-28T02:13:32;4.33;;;3.20;;
1350;SDS011;669;50.206;9.998;2023-05-28T02:16:00;2.43;;;2.20;;
1350;SDS011;669;50.206;9.998;2023-05-28T02:18:28;3.33;;;2.60;;
1350;SDS011;669;50.206;9.998;2023-05-28T02:20:57;3.53;;;2.40;;
1350;SDS011;669;50.206;9.998;2023-05-28T02:23:25;4.00;;;3.10;;
1350;SDS011;669;50.206;9.998;2023-05-28T02:25:53;3.67;;;2.60;;
1350;SDS011;669;50.206;9.998;2023-05-28T02:28:21;4.73;;;3.10;;
1350;SDS011;669;50.206;9.998;2023-05-28T02:30:50;3.90;;;2.87;;
1350;SDS011;669;50.206;9.998;2023-05-28T02:33:18;4.13;;;2.93;;
1350;SDS011;669;50.206;9.998;2023-05-28T02:35:46;3.57;;;2.80;;
1350;SDS011;669;50.206;9.998;2023-05-28T02:38:14;3.70;;;2.73;;
1350;SDS011;669;50.206;9.998;2023-05-28T02:40:42;2.53;;;2.33;;
1350;SDS011;669;50.206;9.998;2023-05-28T02:43:09;3.90;;;2.50;;
1350;SDS011;669;50.206;9.998;2023-05-28T02:45:37;4.10;;;2.80;;
1350;SDS011;669;50.206;9.998;2023-05-28T02:48:07;7.17;;;3.03;;
1350;SDS011;669;50.206;9.998;2023-05-28T02:50:35;3.43;;;3.13;;
1350;SDS011;669;50.206;9.998;2023-05-28T02:53:03;6.57;;;3.70;;
1350;SDS011;669;50.206;9.998;2023-05-28T02:55:30;2.40;;;2.13;;
1350;SDS011;669;50.206;9.998;2023-05-28T02:57:59;5.47;;;3.70;;
1350;SDS011;669;50.206;9.998;2023-05-28T03:00:26;3.03;;;2.50;;
1350;SDS011;669;50.206;9.998;2023-05-28T03:02:55;4.57;;;2.70;;
1350;SDS011;669;50.206;9.998;2023-05-28T03:05:24;3.27;;;2.90;;
1350;SDS011;669;50.206;9.998;2023-05-28T03:07:52;3.93;;;2.60;;
1350;SDS011;669;50.206;9.998;2023-05-28T03:10:20;4.20;;;2.90;;
1350;SDS011;669;50.206;9.998;2023-05-28T03:12:48;5.10;;;3.30;;
1350;SDS011;669;50.206;9.998;2023-05-28T03:15:16;3.00;;;2.63;;
1350;SDS011;669;50.206;9.998;2023-05-28T03:17:44;5.67;;;3.17;;
1350;SDS011;669;50.206;9.998;2023-05-28T03:20:12;3.60;;;2.73;;
1350;SDS011;669;50.206;9.998;2023-05-28T03:22:42;6.40;;;2.40;;
1350;SDS011;669;50.206;9.998;2023-05-28T03:25:10;4.50;;;2.83;;
1350;SDS011;669;50.206;9.998;2023-05-28T03:27:38;3.77;;;2.67;;
1350;SDS011;669;50.206;9.998;2023-05-28T03:30:07;3.33;;;2.50;;
1350;SDS011;669;50.206;9.998;2023-05-28T03:32:36;2.20;;;2.00;;
1350;SDS011;669;50.206;9.998;2023-05-28T03:35:05;3.40;;;2.77;;
1350;SDS011;669;50.206;9.998;2023-05-28T03:37:33;4.87;;;2.93;;
1350;SDS011;669;50.206;9.998;2023-05-28T03:40:03;3.47;;;2.60;;
1350;SDS011;669;50.206;9.998;2023-05-28T03:42:33;3.90;;;2.27;;
1350;SDS011;669;50.206;9.998;2023-05-28T03:45:01;4.40;;;3.30;;
1350;SDS011;669;50.206;9.998;2023-05-28T03:47:29;3.87;;;3.27;;
1350;SDS011;669;50.206;9.998;2023-05-28T03:49:59;3.30;;;2.60;;
1350;SDS011;669;50.206;9.998;2023-05-28T03:52:27;4.07;;;3.20;;
1350;SDS011;669;50.206;9.998;2023-05-28T03:54:55;3.57;;;3.00;;
1350;SDS011;669;50.206;9.998;2023-05-28T03:57:24;3.23;;;2.67;;
1350;SDS011;669;50.206;9.998;2023-05-28T03:59:52;4.10;;;2.27;;
1350;SDS011;669;50.206;9.998;2023-05-28T04:02:22;2.90;;;2.70;;
1350;SDS011;669;50.206;9.998;2023-05-28T04:04:50;4.40;;;2.40;;
1350;SDS011;669;50.206;9.998;2023-05-28T04:07:18;3.50;;;2.50;;
1350;SDS011;669;50.206;9.998;2023-05-28T04:09:46;5.83;;;2.90;;
1350;SDS011;669;50.206;9.998;2023-05-28T04:12:15;3.57;;;3.20;;
1350;SDS011;669;50.206;9.998;2023-05-28T04:14:44;3.20;;;2.53;;
1350;SDS011;669;50.206;9.998;2023-05-28T04:17:12;2.90;;;2.53;;
1350;SDS011;669;50.206;9.998;2023-05-28T04:19:40;2.77;;;2.57;;
1350;SDS011;669;50.206;9.998;2023-05-28T04:22:08;2.33;;;2.13;;
1350;SDS011;669;50.206;9.998;2023-05-28T04:24:36;4.23;;;2.87;;
1350;SDS011;669;50.206;9.998;2023-05-28T04:27:04;5.50;;;2.73;;
1350;SDS011;669;50.206;9.998;2023-05-28T04:29:32;3.80;;;3.50;;
1350;SDS011;669;50.206;9.998;2023-05-28T04:32:02;7.57;;;2.60;;
1350;SDS011;669;50.206;9.998;2023-05-28T04:34:31;4.07;;;3.20;;
1350;SDS011;669;50.206;9.998;2023-05-28T04:37:00;2.73;;;2.53;;
1350;SDS011;669;50.206;9.998;2023-05-28T04:39:28;3.90;;;2.97;;
1350;SDS011;669;50.206;9.998;2023-05-28T04:41:56;7.67;;;3.90;;
1350;SDS011;669;50.206;9.998;2023-05-28T04:44:25;3.33;;;2.60;;
1350;SDS011;669;50.206;9.998;2023-05-28T04:46:55;4.10;;;2.97;;
1350;SDS011;669;50.206;9.998;2023-05-28T04:49:26;9.13;;;5.17;;
1350;SDS011;669;50.206;9.998;2023-05-28T04:51:55;6.47;;;3.70;;
1350;SDS011;669;50.206;9.998;2023-05-28T04:54:23;4.17;;;3.37;;
1350;SDS011;669;50.206;9.998;2023-05-28T04:56:52;3.43;;;2.80;;
1350;SDS011;669;50.206;9.998;2023-05-28T04:59:20;3.50;;;2.90;;
1350;SDS011;669;50.206;9.998;2023-05-28T05:01:48;4.10;;;2.70;;
1350;SDS011;669;50.206;9.998;2023-05-28T05:04:16;5.67;;;3.10;;
1350;SDS011;669;50.206;9.998;2023-05-28T05:06:45;3.50;;;3.03;;
1350;SDS011;669;50.206;9.998;2023-05-28T05:09:13;7.50;;;3.20;;
1350;SDS011;669;50.206;9.998;2023-05-28T05:11:41;5.83;;;2.90;;
1350;SDS011;669;50.206;9.998;2023-05-28T05:14:09;3.30;;;3.00;;
1350;SDS011;669;50.206;9.998;2023-05-28T05:16:37;5.10;;;3.23;;
1350;SDS011;669;50.206;9.998;2023-05-28T05:19:06;4.40;;;3.70;;
1350;SDS011;669;50.206;9.998;2023-05-28T05:21:34;4.00;;;2.87;;
1350;SDS011;669;50.206;9.998;2023-05-28T05:24:04;2.93;;;2.67;;
1350;SDS011;669;50.206;9.998;2023-05-28T05:26:32;3.23;;;2.73;;
1350;SDS011;669;50.206;9.998;2023-05-28T05:29:00;3.47;;;3.00;;
1350;SDS011;669;50.206;9.998;2023-05-28T05:31:28;3.40;;;3.10;;
1350;SDS011;669;50.206;9.998;2023-05-28T05:33:56;3.30;;;3.00;;
1350;SDS011;669;50.206;9.998;2023-05-28T05:36:24;3.03;;;2.73;;
1350;SDS011;669;50.206;9.998;2023-05-28T05:38:52;7.23;;;3.93;;
1350;SDS011;669;50.206;9.998;2023-05-28T05:41:21;4.60;;;3.70;;
1350;SDS011;669;50.206;9.998;2023-05-28T05:43:49;3.10;;;2.80;;
1350;SDS011;669;50.206;9.998;2023-05-28T05:46:17;7.93;;;3.57;;
1350;SDS011;669;50.206;9.998;2023-05-28T05:48:45;2.93;;;2.73;;
1350;SDS011;669;50.206;9.998;2023-05-28T05:51:13;4.27;;;3.37;;
1350;SDS011;669;50.206;9.998;2023-05-28T05:53:44;4.47;;;3.17;;
1350;SDS011;669;50.206;9.998;2023-05-28T05:56:12;4.07;;;3.40;;
1350;SDS011;669;50.206;9.998;2023-05-28T05:58:42;4.37;;;3.27;;
1350;SDS011;669;50.206;9.998;2023-05-28T06:01:11;4.50;;;3.13;;
1350;SDS011;669;50.206;9.998;2023-05-28T06:03:43;4.37;;;3.30;;
1350;SDS011;669;50.206;9.998;2023-05-28T06:06:11;5.33;;;3.67;;
1350;SDS011;669;50.206;9.998;2023-05-28T06:08:39;4.93;;;3.40;;
1350;SDS011;669;50.206;9.998;2023-05-28T06:11:07;4.97;;;3.63;;
1350;SDS011;669;50.206;9.998;2023-05-28T06:13:36;4.60;;;3.40;;
1350;SDS011;669;50.206;9.998;2023-05-28T06:16:05;6.93;;;3.57;;
1350;SDS011;669;50.206;9.998;2023-05-28T06:18:33;6.80;;;4.10;;
1350;SDS011;669;50.206;9.998;2023-05-28T06:21:02;5.40;;;4.00;;
1350;SDS011;669;50.206;9.998;2023-05-28T06:23:30;4.20;;;3.40;;
1350;SDS011;669;50.206;9.998;2023-05-28T06:25:58;5.27;;;3.50;;
1350;SDS011;669;50.206;9.998;2023-05-28T06:28:27;4.47;;;3.17;;
1350;SDS011;669;50.206;9.998;2023-05-28T06:30:55;8.43;;;4.17;;
1350;SDS011;669;50.206;9.998;2023-05-28T06:33:24;9.20;;;4.07;;
1350;SDS011;669;50.206;9.998;2023-05-28T06:35:52;5.97;;;3.97;;
1350;SDS011;669;50.206;9.998;2023-05-28T06:38:21;7.27;;;3.73;;
1350;SDS011;669;50.206;9.998;2023-05-28T06:40:49;7.07;;;3.37;;
1350;SDS011;669;50.206;9.998;2023-05-28T06:43:17;7.10;;;3.93;;
1350;SDS011;669;50.206;9.998;2023-05-28T06:45:44;5.90;;;4.30;;
1350;SDS011;669;50.206;9.998;2023-05-28T06:48:12;6.40;;;3.80;;
1350;SDS011;669;50.206;9.998;2023-05-28T06:50:42;6.20;;;3.90;;
1350;SDS011;669;50.206;9.998;2023-05-28T06:53:10;9.23;;;4.63;;
1350;SDS011;669;50.206;9.998;2023-05-28T06:55:38;6.13;;;3.83;;
1350;SDS011;669;50.206;9.998;2023-05-28T06:58:08;6.13;;;3.80;;
1350;SDS011;669;50.206;9.998;2023-05-28T07:00:36;7.60;;;4.50;;
1350;SDS011;669;50.206;9.998;2023-05-28T07:03:04;5.87;;;4.43;;
1350;SDS011;669;50.206;9.998;2023-05-28T07:05:32;7.23;;;4.13;;
1350;SDS011;669;50.206;9.998;2023-05-28T07:08:03;5.17;;;3.23;;
1350;SDS011;669;50.206;9.998;2023-05-28T07:10:31;5.10;;;3.40;;
1350;SDS011;669;50.206;9.998;2023-05-28T07:12:59;7.57;;;3.53;;
1350;SDS011;669;50.206;9.998;2023-05-28T07:15:27;7.50;;;4.20;;
1350;SDS011;669;50.206;9.998;2023-05-28T07:17:55;6.37;;;4.90;;
1350;SDS011;669;50.206;9.998;2023-05-28T07:20:23;6.03;;;3.13;;
1350;SDS011;669;50.206;9.998;2023-05-28T07:22:51;10.60;;;3.90;;
1350;SDS011;669;50.206;9.998;2023-05-28T07:25:20;9.27;;;4.53;;
1350;SDS011;669;50.206;9.998;2023-05-28T07:27:48;5.40;;;3.53;;
1350;SDS011;669;50.206;9.998;2023-05-28T07:30:16;7.30;;;4.23;;
1350;SDS011;669;50.206;9.998;2023-05-28T07:32:44;10.50;;;4.80;;
1350;SDS011;669;50.206;9.998;2023-05-28T07:35:12;6.77;;;4.87;;
1350;SDS011;669;50.206;9.998;2023-05-28T07:37:40;7.20;;;4.33;;
1350;SDS011;669;50.206;9.998;2023-05-28T07:40:09;5.23;;;3.80;;
1350;SDS011;669;50.206;9.998;2023-05-28T07:42:39;3.63;;;3.40;;
1350;SDS011;669;50.206;9.998;2023-05-28T07:45:08;6.87;;;4.60;;
1350;SDS011;669;50.206;9.998;2023-05-28T07:47:36;5.90;;;4.23;;
1350;SDS011;669;50.206;9.998;2023-05-28T07:50:04;9.33;;;4.50;;
1350;SDS011;669;50.206;9.998;2023-05-28T07:52:34;7.43;;;4.67;;
1350;SDS011;669;50.206;9.998;2023-05-28T07:55:02;4.90;;;3.77;;
1350;SDS011;669;50.206;9.998;2023-05-28T07:57:30;6.30;;;4.17;;
1350;SDS011;669;50.206;9.998;2023-05-28T07:59:59;9.07;;;4.40;;
1350;SDS011;669;50.206;9.998;2023-05-28T08:02:32;4.37;;;3.33;;
1350;SDS011;669;50.206;9.998;2023-05-28T08:05:00;6.10;;;4.00;;
1350;SDS011;669;50.206;9.998;2023-05-28T08:07:28;4.53;;;3.50;;
1350;SDS011;669;50.206;9.998;2023-05-28T08:09:57;6.70;;;4.07;;
1350;SDS011;669;50.206;9.998;2023-05-28T08:12:25;5.60;;;3.60;;
1350;SDS011;669;50.206;9.998;2023-05-28T08:14:53;6.63;;;4.33;;
1350;SDS011;669;50.206;9.998;2023-05-28T08:17:22;7.70;;;4.47;;
1350;SDS011;669;50.206;9.998;2023-05-28T08:19:50;4.80;;;3.47;;
1350;SDS011;669;50.206;9.998;2023-05-28T08:22:27;7.93;;;4.60;;
1350;SDS011;669;50.206;9.998;2023-05-28T08:24:55;4.60;;;3.93;;
1350;SDS011;669;50.206;9.998;2023-05-28T08:27:23;3.90;;;3.13;;
1350;SDS011;669;50.206;9.998;2023-05-28T08:29:51;4.80;;;3.63;;
1350;SDS011;669;50.206;9.998;2023-05-28T08:32:19;6.80;;;4.63;;
1350;SDS011;669;50.206;9.998;2023-05-28T08:34:48;5.10;;;3.50;;
1350;SDS011;669;50.206;9.998;2023-05-28T08:37:16;7.43;;;4.20;;
1350;SDS011;669;50.206;9.998;2023-05-28T08:39:44;6.30;;;4.00;;
1350;SDS011;669;50.206;9.998;2023-05-28T08:42:12;6.43;;;4.00;;
1350;SDS011;669;50.206;9.998;2023-05-28T08:44:41;4.97;;;3.77;;
1350;SDS011;669;50.206;9.998;2023-05-28T08:47:09;3.97;;;3.57;;
1350;SDS011;669;50.206;9.998;2023-05-28T08:49:38;6.07;;;4.10;;
1350;SDS011;669;50.206;9.998;2023-05-28T08:52:12;4.37;;;3.80;;
1350;SDS011;669;50.206;9.998;2023-05-28T08:54:42;5.87;;;3.73;;
1350;SDS011;669;50.206;9.998;2023-05-28T08:57:10;5.50;;;4.10;;
1350;SDS011;669;50.206;9.998;2023-05-28T08:59:38;5.57;;;3.80;;
1350;SDS011;669;50.206;9.998;2023-05-28T09:02:07;5.17;;;4.27;;
1350;SDS011;669;50.206;9.998;2023-05-28T09:04:37;5.83;;;3.70;;
1350;SDS011;669;50.206;9.998;2023-05-28T09:07:06;5.70;;;2.87;;
1350;SDS011;669;50.206;9.998;2023-05-28T09:09:35;4.30;;;3.90;;
1350;SDS011;669;50.206;9.998;2023-05-28T09:12:04;3.77;;;3.10;;
1350;SDS011;669;50.206;9.998;2023-05-28T09:14:37;6.90;;;3.57;;
1350;SDS011;669;50.206;9.998;2023-05-28T09:17:06;8.23;;;3.63;;
1350;SDS011;669;50.206;9.998;2023-05-28T09:19:35;6.73;;;4.10;;
1350;SDS011;669;50.206;9.998;2023-05-28T09:22:03;3.33;;;3.10;;
1350;SDS011;669;50.206;9.998;2023-05-28T09:24:31;5.27;;;4.00;;
1350;SDS011;669;50.206;9.998;2023-05-28T09:27:01;7.20;;;4.50;;
1350;SDS011;669;50.206;9.998;2023-05-28T09:29:29;5.53;;;4.03;;
1350;SDS011;669;50.206;9.998;2023-05-28T09:31:57;5.27;;;4.07;;
1350;SDS011;669;50.206;9.998;2023-05-28T09:34:26;5.50;;;4.43;;
1350;SDS011;669;50.206;9.998;2023-05-28T09:36:58;6.30;;;4.23;;
1350;SDS011;669;50.206;9.998;2023-05-28T09:39:27;5.47;;;3.80;;
1350;SDS011;669;50.206;9.998;2023-05-28T09:41:58;6.73;;;3.57;;
1350;SDS011;669;50.206;9.998;2023-05-28T09:44:32;4.60;;;4.20;;
1350;SDS011;669;50.206;9.998;2023-05-28T09:47:01;4.60;;;3.95;;
1350;SDS011;669;50.206;9.998;2023-05-28T09:49:29;5.00;;;4.27;;
1350;SDS011;669;50.206;9.998;2023-05-28T09:51:58;4.80;;;3.93;;
1350;SDS011;669;50.206;9.998;2023-05-28T09:54:29;7.50;;;4.50;;
1350;SDS011;669;50.206;9.998;2023-05-28T09:57:02;5.63;;;3.40;;
1350;SDS011;669;50.206;9.998;2023-05-28T09:59:33;5.30;;;3.37;;
1350;SDS011;669;50.206;9.998;2023-05-28T10:02:05;6.63;;;4.10;;
1350;SDS011;669;50.206;9.998;2023-05-28T10:04:47;5.80;;;3.73;;
1350;SDS011;669;50.206;9.998;2023-05-28T10:07:20;5.20;;;3.70;;
1350;SDS011;669;50.206;9.998;2023-05-28T10:09:52;8.03;;;4.43;;
1350;SDS011;669;50.206;9.998;2023-05-28T10:12:24;6.60;;;4.40;;
1350;SDS011;669;50.206;9.998;2023-05-28T10:14:55;6.20;;;3.80;;
1350;SDS011;669;50.206;9.998;2023-05-28T10:17:24;9.03;;;4.10;;
1350;SDS011;669;50.206;9.998;2023-05-28T10:19:53;5.30;;;4.33;;
1350;SDS011;669;50.206;9.998;2023-05-28T10:22:20;6.20;;;4.57;;
1350;SDS011;669;50.206;9.998;2023-05-28T10:24:49;4.27;;;3.73;;
1350;SDS011;669;50.206;9.998;2023-05-28T10:27:18;6.13;;;4.20;;
1350;SDS011;669;50.206;9.998;2023-05-28T10:29:47;5.87;;;4.37;;
1350;SDS011;669;50.206;9.998;2023-05-28T10:32:15;6.27;;;3.63;;
1350;SDS011;669;50.206;9.998;2023-05-28T10:34:43;6.07;;;3.70;;
1350;SDS011;669;50.206;9.998;2023-05-28T10:37:11;5.83;;;3.60;;
1350;SDS011;669;50.206;9.998;2023-05-28T10:39:40;4.67;;;4.10;;
1350;SDS011;669;50.206;9.998;2023-05-28T10:42:09;5.53;;;3.90;;
1350;SDS011;669;50.206;9.998;2023-05-28T10:44:51;7.00;;;4.43;;
1350;SDS011;669;50.206;9.998;2023-05-28T10:47:32;4.77;;;4.37;;
1350;SDS011;669;50.206;9.998;2023-05-28T10:50:09;6.07;;;3.83;;
1350;SDS011;669;50.206;9.998;2023-05-28T10:53:02;4.80;;;3.23;;
1350;SDS011;669;50.206;9.998;2023-05-28T10:55:45;5.53;;;4.30;;
1350;SDS011;669;50.206;9.998;2023-05-28T10:58:24;6.63;;;4.60;;
1350;SDS011;669;50.206;9.998;2023-05-28T11:00:58;5.17;;;3.80;;
1350;SDS011;669;50.206;9.998;2023-05-28T11:03:40;5.00;;;4.07;;
1350;SDS011;669;50.206;9.998;2023-05-28T11:06:10;4.40;;;4.00;;
1350;SDS011;669;50.206;9.998;2023-05-28T11:08:40;4.67;;;3.70;;
1350;SDS011;669;50.206;9.998;2023-05-28T11:11:10;4.27;;;3.80;;
1350;SDS011;669;50.206;9.998;2023-05-28T11:13:43;5.20;;;3.77;;
1350;SDS011;669;50.206;9.998;2023-05-28T11:16:14;4.13;;;3.43;;
1350;SDS011;669;50.206;9.998;2023-05-28T11:19:02;5.27;;;4.33;;
1350;SDS011;669;50.206;9.998;2023-05-28T11:21:31;9.40;;;4.20;;
1350;SDS011;669;50.206;9.998;2023-05-28T11:24:00;7.00;;;4.57;;
1350;SDS011;669;50.206;9.998;2023-05-28T11:26:29;7.30;;;4.50;;
1350;SDS011;669;50.206;9.998;2023-05-28T11:28:58;5.50;;;3.93;;
1350;SDS011;669;50.206;9.998;2023-05-28T11:31:28;5.47;;;4.30;;
1350;SDS011;669;50.206;9.998;2023-05-28T11:33:56;3.47;;;3.17;;
1350;SDS011;669;50.206;9.998;2023-05-28T11:36:25;6.53;;;4.17;;
1350;SDS011;669;50.206;9.998;2023-05-28T11:39:02;5.40;;;4.30;;
1350;SDS011;669;50.206;9.998;2023-05-28T11:41:30;4.40;;;3.57;;
1350;SDS011;669;50.206;9.998;2023-05-28T11:43:59;6.23;;;4.00;;
1350;SDS011;669;50.206;9.998;2023-05-28T11:46:26;4.80;;;4.17;;
1350;SDS011;669;50.206;9.998;2023-05-28T11:48:57;4.93;;;3.40;;
1350;SDS011;669;50.206;9.998;2023-05-28T11:51:26;6.90;;;4.07;;
1350;SDS011;669;50.206;9.998;2023-05-28T11:53:54;6.13;;;4.20;;
1350;SDS011;669;50.206;9.998;2023-05-28T11:56:22;5.77;;;3.37;;
1350;SDS011;669;50.206;9.998;2023-05-28T11:58:53;5.33;;;4.00;;
1350;SDS011;669;50.206;9.998;2023-05-28T12:01:21;4.20;;;3.50;;
1350;SDS011;669;50.206;9.998;2023-05-28T12:03:51;6.13;;;4.20;;
1350;SDS011;669;50.206;9.998;2023-05-28T12:06:30;6.73;;;3.73;;
1350;SDS011;669;50.206;9.998;2023-05-28T12:09:06;4.10;;;3.63;;
1350;SDS011;669;50.206;9.998;2023-05-28T12:11:34;6.10;;;3.67;;
1350;SDS011;669;50.206;9.998;2023-05-28T12:14:08;4.57;;;4.17;;
1350;SDS011;669;50.206;9.998;2023-05-28T12:16:44;6.57;;;4.30;;
1350;SDS011;669;50.206;9.998;2023-05-28T12:19:15;4.60;;;4.03;;
1350;SDS011;669;50.206;9.998;2023-05-28T12:21:44;3.80;;;3.40;;
1350;SDS011;669;50.206;9.998;2023-05-28T12:24:12;4.77;;;3.90;;
1350;SDS011;669;50.206;9.998;2023-05-28T12:26:41;7.83;;;4.67;;
1350;SDS011;669;50.206;9.998;2023-05-28T12:29:09;5.20;;;3.50;;
1350;SDS011;669;50.206;9.998;2023-05-28T12:31:37;4.80;;;3.93;;
1350;SDS011;669;50.206;9.998;2023-05-28T12:34:05;4.73;;;4.23;;
1350;SDS011;669;50.206;9.998;2023-05-28T12:36:34;5.43;;;3.57;;
1350;SDS011;669;50.206;9.998;2023-05-28T12:39:02;7.60;;;3.90;;
1350;SDS011;669;50.206;9.998;2023-05-28T12:41:31;4.00;;;3.10;;
1350;SDS011;669;50.206;9.998;2023-05-28T12:43:59;4.97;;;3.23;;
1350;SDS011;669;50.206;9.998;2023-05-28T12:46:27;4.47;;;3.47;;
1350;SDS011;669;50.206;9.998;2023-05-28T12:48:55;4.43;;;3.40;;
1350;SDS011;669;50.206;9.998;2023-05-28T12:51:23;3.80;;;3.27;;
1350;SDS011;669;50.206;9.998;2023-05-28T12:53:52;5.63;;;3.10;;
1350;SDS011;669;50.206;9.998;2023-05-28T12:56:20;4.60;;;3.27;;
1350;SDS011;669;50.206;9.998;2023-05-28T12:58:48;4.50;;;3.50;;
1350;SDS011;669;50.206;9.998;2023-05-28T13:01:18;4.93;;;3.47;;
1350;SDS011;669;50.206;9.998;2023-05-28T13:03:46;6.90;;;3.77;;
1350;SDS011;669;50.206;9.998;2023-05-28T13:06:14;8.17;;;3.63;;
1350;SDS011;669;50.206;9.998;2023-05-28T13:08:43;5.47;;;3.77;;
1350;SDS011;669;50.206;9.998;2023-05-28T13:11:12;7.67;;;3.53;;
1350;SDS011;669;50.206;9.998;2023-05-28T13:13:41;6.60;;;3.97;;
1350;SDS011;669;50.206;9.998;2023-05-28T13:16:09;5.03;;;3.27;;
1350;SDS011;669;50.206;9.998;2023-05-28T13:18:40;5.37;;;3.80;;
1350;SDS011;669;50.206;9.998;2023-05-28T13:21:09;3.50;;;3.20;;
1350;SDS011;669;50.206;9.998;2023-05-28T13:23:36;6.47;;;3.73;;
1350;SDS011;669;50.206;9.998;2023-05-28T13:26:04;3.90;;;3.60;;
1350;SDS011;669;50.206;9.998;2023-05-28T13:28:34;4.40;;;3.30;;
1350;SDS011;669;50.206;9.998;2023-05-28T13:31:02;5.33;;;3.60;;
1350;SDS011;669;50.206;9.998;2023-05-28T13:33:30;4.93;;;3.70;;
1350;SDS011;669;50.206;9.998;2023-05-28T13:35:58;3.60;;;3.30;;
1350;SDS011;669;50.206;9.998;2023-05-28T13:38:26;4.20;;;3.80;;
1350;SDS011;669;50.206;9.998;2023-05-28T13:40:54;3.90;;;3.50;;
1350;SDS011;669;50.206;9.998;2023-05-28T13:43:22;3.20;;;2.90;;
1350;SDS011;669;50.206;9.998;2023-05-28T13:45:53;4.80;;;3.60;;
1350;SDS011;669;50.206;9.998;2023-05-28T13:48:21;5.17;;;3.97;;
1350;SDS011;669;50.206;9.998;2023-05-28T13:50:51;4.13;;;3.17;;
1350;SDS011;669;50.206;9.998;2023-05-28T13:53:19;4.23;;;3.57;;
1350;SDS011;669;50.206;9.998;2023-05-28T13:55:47;4.50;;;3.13;;
1350;SDS011;669;50.206;9.998;2023-05-28T13:58:15;4.20;;;3.80;;
1350;SDS011;669;50.206;9.998;2023-05-28T14:00:43;7.77;;;4.40;;
1350;SDS011;669;50.206;9.998;2023-05-28T14:03:13;4.93;;;3.60;;
1350;SDS011;669;50.206;9.998;2023-05-28T14:05:41;5.13;;;4.10;;
1350;SDS011;669;50.206;9.998;2023-05-28T14:08:10;8.13;;;4.23;;
1350;SDS011;669;50.206;9.998;2023-05-28T14:10:38;4.30;;;3.33;;
1350;SDS011;669;50.206;9.998;2023-05-28T14:13:06;5.07;;;4.07;;
1350;SDS011;669;50.206;9.998;2023-05-28T14:15:34;5.60;;;4.23;;
1350;SDS011;669;50.206;9.998;2023-05-28T14:18:02;4.07;;;3.60;;
1350;SDS011;669;50.206;9.998;2023-05-28T14:20:34;4.17;;;3.40;;
1350;SDS011;669;50.206;9.998;2023-05-28T14:23:02;9.63;;;3.80;;
1350;SDS011;669;50.206;9.998;2023-05-28T14:25:30;4.80;;;4.00;;
1350;SDS011;669;50.206;9.998;2023-05-28T14:27:58;6.73;;;4.10;;
1350;SDS011;669;50.206;9.998;2023-05-28T14:30:37;6.23;;;4.20;;
1350;SDS011;669;50.206;9.998;2023-05-28T14:33:05;5.70;;;3.90;;
1350;SDS011;669;50.206;9.998;2023-05-28T14:35:35;5.20;;;3.70;;
1350;SDS011;669;50.206;9.998;2023-05-28T14:38:04;6.33;;;3.90;;
1350;SDS011;669;50.206;9.998;2023-05-28T14:40:32;4.80;;;4.13;;
1350;SDS011;669;50.206;9.998;2023-05-28T14:43:00;7.47;;;4.97;;
1350;SDS011;669;50.206;9.998;2023-05-28T14:45:28;6.77;;;4.07;;
1350;SDS011;669;50.206;9.998;2023-05-28T14:47:56;6.57;;;4.00;;
1350;SDS011;669;50.206;9.998;2023-05-28T14:50:24;6.33;;;4.10;;
1350;SDS011;669;50.206;9.998;2023-05-28T14:52:53;5.83;;;4.07;;
1350;SDS011;669;50.206;9.998;2023-05-28T14:55:21;5.67;;;3.70;;
1350;SDS011;669;50.206;9.998;2023-05-28T14:57:49;4.83;;;4.20;;
1350;SDS011;669;50.206;9.998;2023-05-28T15:00:17;4.33;;;3.50;;
1350;SDS011;669;50.206;9.998;2023-05-28T15:02:45;5.90;;;4.33;;
1350;SDS011;669;50.206;9.998;2023-05-28T15:05:13;7.33;;;5.00;;
1350;SDS011;669;50.206;9.998;2023-05-28T15:07:41;6.37;;;3.80;;
1350;SDS011;669;50.206;9.998;2023-05-28T15:10:10;4.10;;;3.43;;
1350;SDS011;669;50.206;9.998;2023-05-28T15:12:38;6.03;;;4.03;;
1350;SDS011;669;50.206;9.998;2023-05-28T15:15:07;7.63;;;5.10;;
1350;SDS011;669;50.206;9.998;2023-05-28T15:17:36;5.20;;;4.13;;
1350;SDS011;669;50.206;9.998;2023-05-28T15:20:04;6.47;;;3.90;;
1350;SDS011;669;50.206;9.998;2023-05-28T15:22:33;3.83;;;3.47;;
1350;SDS011;669;50.206;9.998;2023-05-28T15:25:02;6.00;;;3.30;;
1350;SDS011;669;50.206;9.998;2023-05-28T15:27:31;5.70;;;3.77;;
1350;SDS011;669;50.206;9.998;2023-05-28T15:30:00;3.67;;;3.03;;
1350;SDS011;669;50.206;9.998;2023-05-28T15:32:28;6.13;;;3.53;;
1350;SDS011;669;50.206;9.998;2023-05-28T15:34:57;4.87;;;3.10;;
1350;SDS011;669;50.206;9.998;2023-05-28T15:37:25;5.20;;;3.47;;
1350;SDS011;669;50.206;9.998;2023-05-28T15:39:53;5.47;;;3.70;;
1350;SDS011;669;50.206;9.998;2023-05-28T15:42:23;7.70;;;3.90;;